Time;durP1;ratioP1;P1;durP2;ratioP2;P2;SDS_P1;SDS_P2;PMS_P1;PMS_P2;Temp;Humidity;BMP_temperature;BMP_pressure;BME280_temperature;BME280_humidity;BME280_pressure;Samples;Min_cycle;Max_cycle;Signal;HPM_P1;HPM_P2
2022/12/01 00:00:55;;;;;;;79.50;28.20;;;;;;;;;;103451;1310;24241;-79
2022/12/01 00:03:22;;;;;;;84.70;29.90;;;;;;;;;;103434;1307;25390;-81
2022/12/01 00:06:06;;;;;;;80.60;29.20;;;;;;;;;;103474;1312;22495;-80
2022/12/01 00:08:33;;;;;;;84.30;29.90;;;;;;;;;;103436;1310;22414;-80
2022/12/01 00:11:07;;;;;;;79.20;27.90;;;;;;;;;;103407;1310;26504;-83
2022/12/01 00:13:34;;;;;;;77.60;27.50;;;;;;;;;;103453;1298;24190;-83
2022/12/01 00:16:11;;;;;;;80.50;28.30;;;;;;;;;;103482;1306;22715;-82
2022/12/01 00:18:37;;;;;;;74.30;27.50;;;;;;;;;;103462;1307;23848;-79
2022/12/01 00:21:04;;;;;;;83.40;27.80;;;;;;;;;;103431;1309;25309;-80
2022/12/01 00:23:31;;;;;;;73.20;27.50;;;;;;;;;;103469;1307;22591;-82
2022/12/01 00:26:02;;;;;;;70.10;26.30;;;;;;;;;;103442;1310;24268;-78
2022/12/01 00:28:29;;;;;;;70.30;26.80;;;;;;;;;;103483;1313;22588;-79
2022/12/01 00:30:56;;;;;;;72.50;25.10;;;;;;;;;;103476;1307;25502;-78
2022/12/01 00:33:23;;;;;;;73.70;24.80;;;;;;;;;;103262;1309;25509;-83
2022/12/01 00:35:49;;;;;;;75.10;26.60;;;;;;;;;;103490;1307;25351;-80
2022/12/01 00:38:16;;;;;;;66.80;24.70;;;;;;;;;;103422;1302;22514;-78
2022/12/01 00:40:43;;;;;;;76.40;26.90;;;;;;;;;;103445;1313;22468;-80
2022/12/01 00:43:09;;;;;;;77.70;28.20;;;;;;;;;;103435;1306;22530;-83
2022/12/01 00:45:36;;;;;;;72.30;27.70;;;;;;;;;;103482;1307;24237;-81
2022/12/01 00:48:03;;;;;;;80.50;29.10;;;;;;;;;;103435;1305;22756;-83
2022/12/01 00:50:29;;;;;;;73.20;27.80;;;;;;;;;;103403;1291;24219;-81
2022/12/01 00:52:56;;;;;;;81.80;28.70;;;;;;;;;;103410;1302;24410;-77
2022/12/01 00:55:23;;;;;;;71.40;27.20;;;;;;;;;;103184;1302;22722;-78
2022/12/01 00:57:49;;;;;;;72.90;27.20;;;;;;;;;;103328;1306;22423;-81
2022/12/01 01:00:16;;;;;;;71.80;25.90;;;;;;;;;;103470;1306;22474;-77
2022/12/01 01:02:43;;;;;;;73.10;26.40;;;;;;;;;;103418;1300;22468;-78
2022/12/01 01:05:10;;;;;;;61.50;23.30;;;;;;;;;;103451;1307;22463;-81
2022/12/01 01:07:37;;;;;;;63.40;24.40;;;;;;;;;;103480;1307;22459;-79
2022/12/01 01:10:04;;;;;;;69.20;26.10;;;;;;;;;;103252;1307;24275;-81
2022/12/01 01:12:31;;;;;;;66.60;25.40;;;;;;;;;;103433;1306;24407;-78
2022/12/01 01:14:57;;;;;;;68.90;25.20;;;;;;;;;;103457;1306;22488;-76
2022/12/01 01:17:24;;;;;;;72.80;26.60;;;;;;;;;;103479;1306;25324;-81
2022/12/01 01:19:54;;;;;;;70.10;26.30;;;;;;;;;;103458;1307;24256;-81
2022/12/01 01:22:20;;;;;;;70.80;26.00;;;;;;;;;;103465;1293;24195;-81
2022/12/01 01:24:47;;;;;;;77.60;27.50;;;;;;;;;;103462;1303;24324;-78
2022/12/01 01:27:14;;;;;;;61.00;24.10;;;;;;;;;;103477;1306;24225;-78
2022/12/01 01:29:41;;;;;;;66.10;25.60;;;;;;;;;;103412;1307;22486;-80
2022/12/01 01:32:08;;;;;;;61.20;23.70;;;;;;;;;;103414;1307;23905;-80
2022/12/01 01:34:34;;;;;;;63.60;24.30;;;;;;;;;;103427;1291;25311;-81
2022/12/01 01:37:01;;;;;;;64.10;25.00;;;;;;;;;;103424;1301;24314;-79
2022/12/01 01:39:28;;;;;;;65.40;24.40;;;;;;;;;;103481;1311;24331;-82
2022/12/01 01:41:54;;;;;;;67.00;25.10;;;;;;;;;;103397;1307;22466;-80
2022/12/01 01:45:00;;;;;;;68.80;24.70;;;;;;;;;;103404;1307;22597;-81
2022/12/01 01:47:30;;;;;;;70.40;25.90;;;;;;;;;;102716;1314;22600;-80
2022/12/01 01:49:59;;;;;;;65.20;25.80;;;;;;;;;;102822;1313;22480;-82
2022/12/01 01:52:26;;;;;;;70.20;24.40;;;;;;;;;;102826;1314;25487;-77
2022/12/01 01:54:54;;;;;;;67.30;25.80;;;;;;;;;;102859;1310;22500;-81
2022/12/01 01:57:32;;;;;;;69.20;25.70;;;;;;;;;;102839;1313;22511;-81
2022/12/01 02:00:09;;;;;;;69.90;26.50;;;;;;;;;;102800;1310;24697;-79
2022/12/01 02:02:44;;;;;;;74.10;26.00;;;;;;;;;;102845;1312;24353;-79
2022/12/01 02:05:18;;;;;;;74.10;26.50;;;;;;;;;;102792;1314;22585;-80
2022/12/01 02:07:45;;;;;;;73.30;25.80;;;;;;;;;;102703;1314;22491;-82
2022/12/01 02:10:13;;;;;;;69.70;26.10;;;;;;;;;;102883;1306;24309;-79
2022/12/01 02:12:54;;;;;;;65.90;24.70;;;;;;;;;;102790;1313;21761;-81
2022/12/01 02:15:31;;;;;;;71.80;25.40;;;;;;;;;;102971;1313;25354;-78
2022/12/01 02:18:17;;;;;;;72.50;26.10;;;;;;;;;;102942;1299;25260;-79
2022/12/01 02:20:44;;;;;;;67.80;25.60;;;;;;;;;;103510;1306;22464;-82
2022/12/01 02:23:22;;;;;;;69.60;25.10;;;;;;;;;;103474;1306;25673;-84
2022/12/01 02:25:55;;;;;;;66.80;24.70;;;;;;;;;;103490;1298;22457;-79
2022/12/01 02:28:22;;;;;;;68.90;24.60;;;;;;;;;;103538;1305;22512;-82
2022/12/01 02:30:51;;;;;;;67.50;24.20;;;;;;;;;;103525;1306;22479;-80
2022/12/01 02:33:22;;;;;;;62.50;24.60;;;;;;;;;;103465;1306;22476;-78
2022/12/01 02:35:58;;;;;;;69.30;25.30;;;;;;;;;;103487;1306;22466;-84
2022/12/01 02:38:30;;;;;;;64.20;24.50;;;;;;;;;;103476;1307;22425;-84
2022/12/01 02:41:04;;;;;;;73.40;26.20;;;;;;;;;;103492;1307;22762;-78
2022/12/01 02:43:32;;;;;;;67.90;26.30;;;;;;;;;;103438;1307;22476;-83
2022/12/01 02:46:03;;;;;;;68.60;25.40;;;;;;;;;;103474;1301;22709;-80
2022/12/01 02:48:32;;;;;;;69.80;25.80;;;;;;;;;;103514;1301;24321;-82
2022/12/01 02:51:09;;;;;;;65.00;24.40;;;;;;;;;;103466;1307;25411;-78
2022/12/01 02:53:36;;;;;;;67.30;24.20;;;;;;;;;;103448;1306;22484;-83
2022/12/01 02:56:05;;;;;;;63.00;24.30;;;;;;;;;;103460;1306;22471;-81
2022/12/01 02:58:31;;;;;;;64.60;24.30;;;;;;;;;;103461;1306;25273;-80
2022/12/01 03:01:03;;;;;;;61.70;24.00;;;;;;;;;;103410;1306;22471;-78
2022/12/01 03:03:33;;;;;;;67.10;26.10;;;;;;;;;;103421;1307;24274;-83
2022/12/01 03:06:13;;;;;;;66.90;24.60;;;;;;;;;;103469;1307;25476;-80
2022/12/01 03:08:44;;;;;;;66.70;25.20;;;;;;;;;;103357;1307;22462;-79
2022/12/01 03:11:25;;;;;;;67.70;24.60;;;;;;;;;;103468;1305;22806;-80
2022/12/01 03:13:52;;;;;;;69.20;26.20;;;;;;;;;;103470;1304;25275;-81
2022/12/01 03:16:19;;;;;;;67.30;24.00;;;;;;;;;;103442;1306;22465;-80
2022/12/01 03:18:49;;;;;;;66.60;23.90;;;;;;;;;;103532;1306;22570;-80
2022/12/01 03:21:42;;;;;;;61.30;22.10;;;;;;;;;;103497;1306;22586;-82
2022/12/01 03:24:12;;;;;;;60.10;23.40;;;;;;;;;;103399;1307;24317;-80
2022/12/01 03:26:44;;;;;;;58.80;21.40;;;;;;;;;;103469;1308;24427;-83
2022/12/01 03:29:16;;;;;;;62.40;23.20;;;;;;;;;;103441;1306;22423;-82
2022/12/01 03:31:47;;;;;;;61.60;22.80;;;;;;;;;;103465;1306;22603;-81
2022/12/01 03:34:37;;;;;;;62.40;21.50;;;;;;;;;;103459;1306;24364;-77
2022/12/01 03:37:08;;;;;;;59.90;22.60;;;;;;;;;;103394;1306;24244;-78
2022/12/01 03:39:36;;;;;;;61.70;22.30;;;;;;;;;;103444;1306;22600;-80
2022/12/01 03:42:03;;;;;;;61.20;21.90;;;;;;;;;;103462;1307;22471;-78
2022/12/01 03:44:33;;;;;;;59.10;21.10;;;;;;;;;;103488;1306;22606;-80
2022/12/01 03:47:09;;;;;;;60.10;22.40;;;;;;;;;;103497;1306;24283;-76
2022/12/01 03:49:36;;;;;;;60.30;22.70;;;;;;;;;;103432;1306;22489;-82
2022/12/01 03:52:06;;;;;;;60.30;22.50;;;;;;;;;;103482;1293;24443;-82
2022/12/01 03:54:44;;;;;;;61.80;21.60;;;;;;;;;;103445;1306;24296;-83
2022/12/01 03:57:13;;;;;;;59.50;21.30;;;;;;;;;;103437;1306;24177;-79
2022/12/01 03:59:41;;;;;;;60.90;23.30;;;;;;;;;;103481;1306;22506;-83
2022/12/01 04:02:07;;;;;;;57.10;21.50;;;;;;;;;;103451;1300;25290;-76
2022/12/01 04:04:34;;;;;;;55.40;21.80;;;;;;;;;;103486;1306;22461;-83
2022/12/01 04:07:01;;;;;;;58.20;20.80;;;;;;;;;;103453;1307;22483;-80
2022/12/01 04:09:28;;;;;;;62.50;24.00;;;;;;;;;;103267;1306;22461;-76
2022/12/01 04:14:40;;;;;;;62.00;21.90;;;;;;;;;;103473;1298;24528;-79
2022/12/01 04:17:07;;;;;;;57.40;20.70;;;;;;;;;;103449;1306;22552;-82
2022/12/01 04:19:34;;;;;;;56.00;20.50;;;;;;;;;;103422;1307;21674;-79
2022/12/01 04:22:00;;;;;;;53.00;21.10;;;;;;;;;;103252;1306;22709;-77
2022/12/01 04:24:27;;;;;;;53.70;21.00;;;;;;;;;;103267;1283;22475;-80
2022/12/01 04:26:53;;;;;;;56.20;22.50;;;;;;;;;;103437;1305;22731;-81
2022/12/01 04:29:20;;;;;;;52.80;20.10;;;;;;;;;;103440;1306;25264;-79
2022/12/01 04:31:47;;;;;;;50.80;20.80;;;;;;;;;;103463;1306;24394;-78
2022/12/01 04:34:14;;;;;;;57.50;21.10;;;;;;;;;;103445;1306;22532;-77
2022/12/01 04:36:40;;;;;;;54.90;21.10;;;;;;;;;;103495;1305;22465;-78
2022/12/01 04:39:07;;;;;;;53.00;19.60;;;;;;;;;;103724;1304;24908;-80
2022/12/01 04:41:33;;;;;;;49.30;19.70;;;;;;;;;;103489;1305;22467;-83
2022/12/01 04:44:00;;;;;;;53.50;21.00;;;;;;;;;;103482;1304;24673;-81
2022/12/01 04:46:27;;;;;;;50.60;20.70;;;;;;;;;;103475;1305;22484;-82
2022/12/01 04:48:54;;;;;;;49.90;19.30;;;;;;;;;;103465;1292;22473;-82
2022/12/01 04:51:21;;;;;;;57.00;21.10;;;;;;;;;;103349;1307;22460;-79
2022/12/01 04:53:50;;;;;;;53.20;20.20;;;;;;;;;;103447;1306;24321;-78
2022/12/01 04:56:17;;;;;;;51.60;20.10;;;;;;;;;;103460;1307;22582;-78
2022/12/01 04:58:44;;;;;;;60.90;23.90;;;;;;;;;;103726;1282;22478;-82
2022/12/01 05:01:12;;;;;;;53.10;21.40;;;;;;;;;;103471;1307;22703;-81
2022/12/01 05:03:40;;;;;;;57.40;21.40;;;;;;;;;;103459;1307;24292;-83
2022/12/01 05:06:09;;;;;;;61.10;22.00;;;;;;;;;;103442;1305;24321;-81
2022/12/01 05:08:36;;;;;;;57.00;22.70;;;;;;;;;;103437;1306;25163;-81
2022/12/01 05:11:06;;;;;;;63.20;23.30;;;;;;;;;;103448;1306;22479;-81
2022/12/01 05:13:35;;;;;;;65.80;23.40;;;;;;;;;;103450;1300;23335;-82
2022/12/01 05:16:06;;;;;;;57.30;22.10;;;;;;;;;;103548;1305;22472;-80
2022/12/01 05:18:33;;;;;;;67.40;23.80;;;;;;;;;;103471;1301;25277;-79
2022/12/01 05:21:00;;;;;;;58.30;21.60;;;;;;;;;;103475;1299;22462;-84
2022/12/01 05:23:27;;;;;;;63.30;22.10;;;;;;;;;;103468;1306;22590;-83
2022/12/01 05:25:54;;;;;;;58.60;21.00;;;;;;;;;;103470;1305;22477;-82
2022/12/01 05:28:22;;;;;;;54.90;21.00;;;;;;;;;;103475;1306;22470;-79
2022/12/01 05:30:49;;;;;;;55.50;20.00;;;;;;;;;;103432;1306;22528;-79
2022/12/01 05:33:16;;;;;;;47.30;18.70;;;;;;;;;;103444;1306;25531;-82
2022/12/01 05:35:43;;;;;;;45.00;17.70;;;;;;;;;;103433;1306;23071;-81
2022/12/01 05:38:09;;;;;;;45.90;17.30;;;;;;;;;;103475;1301;24445;-80
2022/12/01 05:40:37;;;;;;;44.00;17.00;;;;;;;;;;103463;1305;22472;-82
2022/12/01 05:43:04;;;;;;;52.00;18.60;;;;;;;;;;103517;1306;25357;-80
2022/12/01 05:45:31;;;;;;;50.10;18.90;;;;;;;;;;103702;1305;22636;-77
2022/12/01 05:47:58;;;;;;;46.30;19.40;;;;;;;;;;103430;1306;22485;-79
2022/12/01 05:50:26;;;;;;;46.90;17.40;;;;;;;;;;103428;1306;22516;-80
2022/12/01 05:52:55;;;;;;;40.70;18.00;;;;;;;;;;103528;1305;22472;-82
2022/12/01 05:55:22;;;;;;;47.90;18.20;;;;;;;;;;103304;1307;22479;-77
2022/12/01 05:57:48;;;;;;;49.90;18.00;;;;;;;;;;103657;1304;25502;-76
2022/12/01 06:00:15;;;;;;;48.40;18.00;;;;;;;;;;103512;1306;24370;-79
2022/12/01 06:02:42;;;;;;;48.30;17.40;;;;;;;;;;103497;1304;25203;-80
2022/12/01 06:05:09;;;;;;;49.00;19.10;;;;;;;;;;103733;1299;22456;-83
2022/12/01 06:07:39;;;;;;;47.70;19.50;;;;;;;;;;103452;1306;24270;-80
2022/12/01 06:10:06;;;;;;;51.50;19.70;;;;;;;;;;103483;1306;25299;-80
2022/12/01 06:12:33;;;;;;;49.30;19.60;;;;;;;;;;103497;1307;25208;-77
2022/12/01 06:15:00;;;;;;;50.00;18.90;;;;;;;;;;103459;1306;22505;-80
2022/12/01 06:17:27;;;;;;;44.00;18.00;;;;;;;;;;103461;1305;22479;-77
2022/12/01 06:19:54;;;;;;;43.40;17.10;;;;;;;;;;103511;1298;22489;-82
2022/12/01 06:22:20;;;;;;;46.80;18.20;;;;;;;;;;103507;1307;22484;-79
2022/12/01 06:24:47;;;;;;;48.50;18.30;;;;;;;;;;103498;1304;22454;-84
2022/12/01 06:27:13;;;;;;;49.70;18.40;;;;;;;;;;103379;1301;25350;-77
2022/12/01 06:29:40;;;;;;;48.80;19.20;;;;;;;;;;103463;1306;25302;-78
2022/12/01 06:32:07;;;;;;;44.00;18.40;;;;;;;;;;103463;1306;25354;-81
2022/12/01 06:34:33;;;;;;;44.00;17.70;;;;;;;;;;103477;1306;22581;-80
2022/12/01 06:37:00;;;;;;;46.60;17.00;;;;;;;;;;102500;1298;1369606;-81
2022/12/01 06:39:27;;;;;;;43.30;16.40;;;;;;;;;;103462;1300;22466;-83
2022/12/01 06:41:53;;;;;;;43.00;16.70;;;;;;;;;;103493;1282;24227;-79
2022/12/01 06:44:20;;;;;;;46.50;18.70;;;;;;;;;;103518;1307;24234;-78
2022/12/01 06:46:51;;;;;;;47.00;18.30;;;;;;;;;;103705;1295;24334;-77
2022/12/01 06:49:18;;;;;;;49.70;18.50;;;;;;;;;;103489;1305;22480;-82
2022/12/01 06:51:45;;;;;;;54.20;20.60;;;;;;;;;;103498;1306;24234;-76
2022/12/01 06:54:13;;;;;;;61.00;23.00;;;;;;;;;;103497;1305;22463;-78
2022/12/01 06:56:41;;;;;;;60.20;22.50;;;;;;;;;;103477;1298;22874;-78
2022/12/01 06:59:08;;;;;;;120.40;42.20;;;;;;;;;;103619;1307;22466;-77
2022/12/01 07:01:35;;;;;;;119.90;41.00;;;;;;;;;;103559;1291;23081;-79
2022/12/01 07:04:01;;;;;;;102.80;40.40;;;;;;;;;;103693;1304;24212;-76
2022/12/01 07:06:29;;;;;;;57.30;23.00;;;;;;;;;;103490;1306;25502;-83
2022/12/01 07:08:56;;;;;;;55.50;23.10;;;;;;;;;;103522;1304;22486;-77
2022/12/01 07:11:23;;;;;;;59.50;23.50;;;;;;;;;;103394;1307;24282;-81
2022/12/01 07:13:53;;;;;;;59.10;23.40;;;;;;;;;;103462;1285;24511;-79
2022/12/01 07:16:21;;;;;;;45.00;18.60;;;;;;;;;;103428;1306;23073;-77
2022/12/01 07:18:48;;;;;;;47.50;18.70;;;;;;;;;;103502;1304;22472;-78
2022/12/01 07:21:14;;;;;;;45.40;19.10;;;;;;;;;;103450;1307;22465;-80
2022/12/01 07:23:41;;;;;;;45.80;18.40;;;;;;;;;;103470;1291;24398;-79
2022/12/01 07:26:13;;;;;;;46.00;17.70;;;;;;;;;;103697;1304;25258;-79
2022/12/01 07:28:40;;;;;;;46.00;17.60;;;;;;;;;;103634;1304;25494;-77
2022/12/01 07:31:10;;;;;;;43.10;17.70;;;;;;;;;;103497;1302;22721;-78
2022/12/01 07:33:37;;;;;;;47.40;19.20;;;;;;;;;;103421;1306;23323;-78
2022/12/01 07:36:04;;;;;;;44.60;17.50;;;;;;;;;;103344;1306;22032;-79
2022/12/01 07:38:31;;;;;;;45.80;18.50;;;;;;;;;;103485;1306;25521;-80
2022/12/01 07:41:02;;;;;;;47.80;18.70;;;;;;;;;;103732;1304;24326;-78
2022/12/01 07:43:30;;;;;;;49.70;17.20;;;;;;;;;;103776;1307;25237;-77
2022/12/01 07:46:02;;;;;;;48.20;18.50;;;;;;;;;;103464;1307;24234;-78
2022/12/01 07:48:29;;;;;;;47.50;18.50;;;;;;;;;;103414;1305;22869;-77
2022/12/01 07:50:55;;;;;;;45.20;17.90;;;;;;;;;;103434;1306;24325;-82
2022/12/01 07:53:22;;;;;;;39.90;17.00;;;;;;;;;;103422;1306;22584;-81
2022/12/01 07:55:49;;;;;;;44.70;17.50;;;;;;;;;;103473;1297;22718;-79
2022/12/01 07:58:16;;;;;;;49.70;20.00;;;;;;;;;;103437;1305;22466;-76
2022/12/01 08:00:42;;;;;;;59.80;27.60;;;;;;;;;;103363;1304;22472;-80
2022/12/01 08:03:09;;;;;;;58.70;28.50;;;;;;;;;;103465;1307;22578;-80
2022/12/01 08:05:36;;;;;;;46.10;20.50;;;;;;;;;;103467;1297;22534;-81
2022/12/01 08:08:02;;;;;;;44.60;18.20;;;;;;;;;;103514;1307;27443;-77
2022/12/01 08:10:29;;;;;;;52.80;21.80;;;;;;;;;;103490;1306;22661;-77
2022/12/01 08:12:56;;;;;;;50.20;22.10;;;;;;;;;;103514;1306;22512;-83
2022/12/01 08:15:23;;;;;;;91.10;39.10;;;;;;;;;;103506;1306;25271;-81
2022/12/01 08:17:50;;;;;;;55.50;21.00;;;;;;;;;;103437;1306;22536;-79
2022/12/01 08:20:17;;;;;;;46.60;18.70;;;;;;;;;;103561;1305;24269;-80
2022/12/01 08:22:44;;;;;;;43.90;17.70;;;;;;;;;;103485;1288;22463;-78
2022/12/01 08:25:11;;;;;;;43.90;17.30;;;;;;;;;;103671;1304;24248;-83
2022/12/01 08:27:37;;;;;;;41.60;17.20;;;;;;;;;;103700;1298;22712;-78
2022/12/01 08:30:05;;;;;;;44.20;18.10;;;;;;;;;;103434;1305;22512;-79
2022/12/01 08:32:31;;;;;;;43.60;17.90;;;;;;;;;;103454;1304;22535;-80
2022/12/01 08:34:58;;;;;;;46.20;18.60;;;;;;;;;;103440;1306;22772;-78
2022/12/01 08:37:24;;;;;;;51.20;22.60;;;;;;;;;;103496;1298;25211;-81
2022/12/01 08:39:51;;;;;;;70.20;27.80;;;;;;;;;;103599;1291;22529;-79
2022/12/01 08:42:18;;;;;;;203.50;53.00;;;;;;;;;;103565;1304;22916;-77
2022/12/01 08:44:45;;;;;;;568.20;160.40;;;;;;;;;;103507;1305;22593;-76
2022/12/01 08:47:11;;;;;;;380.50;97.10;;;;;;;;;;103492;1283;22482;-79
2022/12/01 08:49:38;;;;;;;92.50;27.70;;;;;;;;;;103523;1306;24200;-80
2022/12/01 08:52:04;;;;;;;95.20;25.60;;;;;;;;;;103437;1306;25265;-81
2022/12/01 08:54:31;;;;;;;71.30;22.50;;;;;;;;;;103430;1306;22446;-82
2022/12/01 08:56:58;;;;;;;67.40;22.50;;;;;;;;;;103409;1306;25501;-83
2022/12/01 08:59:24;;;;;;;46.20;19.50;;;;;;;;;;103535;1306;24417;-78
2022/12/01 09:01:51;;;;;;;51.50;20.80;;;;;;;;;;103544;1305;22510;-77
2022/12/01 09:04:22;;;;;;;47.60;20.10;;;;;;;;;;103745;1304;22499;-76
2022/12/01 09:06:49;;;;;;;51.60;19.70;;;;;;;;;;103537;1298;22484;-77
2022/12/01 09:09:18;;;;;;;53.00;20.00;;;;;;;;;;103560;1298;24308;-81
2022/12/01 09:11:45;;;;;;;48.20;18.90;;;;;;;;;;103505;1301;24332;-78
2022/12/01 09:14:13;;;;;;;93.00;27.50;;;;;;;;;;103524;1306;24218;-77
2022/12/01 09:16:40;;;;;;;60.90;22.10;;;;;;;;;;103574;1306;25342;-79
2022/12/01 09:19:07;;;;;;;80.00;25.80;;;;;;;;;;103485;1299;22462;-83
2022/12/01 09:21:36;;;;;;;54.70;22.90;;;;;;;;;;103628;1305;25356;-77
2022/12/01 09:24:04;;;;;;;55.00;22.80;;;;;;;;;;103696;1304;23163;-80
2022/12/01 09:26:30;;;;;;;48.60;20.00;;;;;;;;;;103708;1305;22462;-78
2022/12/01 09:29:03;;;;;;;43.40;19.50;;;;;;;;;;103520;1304;22468;-81
2022/12/01 09:31:30;;;;;;;51.90;20.50;;;;;;;;;;103512;1282;22473;-78
2022/12/01 09:33:58;;;;;;;44.50;20.30;;;;;;;;;;103474;1306;24321;-81
2022/12/01 09:36:25;;;;;;;46.30;19.20;;;;;;;;;;103556;1305;25395;-80
2022/12/01 09:38:52;;;;;;;47.80;20.80;;;;;;;;;;103540;1297;22702;-79
2022/12/01 09:41:24;;;;;;;49.50;21.10;;;;;;;;;;103511;1306;24320;-79
2022/12/01 09:43:55;;;;;;;49.70;21.80;;;;;;;;;;103585;1307;25340;-78
2022/12/01 09:46:27;;;;;;;50.80;22.50;;;;;;;;;;103793;1304;22460;-78
2022/12/01 09:48:56;;;;;;;59.90;24.50;;;;;;;;;;103563;1305;22483;-78
2022/12/01 09:51:24;;;;;;;57.10;23.70;;;;;;;;;;103615;1298;23130;-76
2022/12/01 09:53:53;;;;;;;57.40;23.10;;;;;;;;;;103533;1306;22539;-79
2022/12/01 09:56:21;;;;;;;52.00;23.10;;;;;;;;;;103583;1306;24238;-76
2022/12/01 09:58:50;;;;;;;54.10;24.00;;;;;;;;;;103511;1298;24395;-81
2022/12/01 10:01:18;;;;;;;52.00;23.70;;;;;;;;;;103551;1307;24237;-82
2022/12/01 10:03:50;;;;;;;50.30;22.40;;;;;;;;;;103732;1295;23135;-80
2022/12/01 10:06:39;;;;;;;50.10;22.80;;;;;;;;;;103576;1305;22496;-76
2022/12/01 10:09:20;;;;;;;58.80;25.30;;;;;;;;;;103720;1304;22464;-82
2022/12/01 10:11:47;;;;;;;53.60;24.00;;;;;;;;;;103505;1306;24041;-80
2022/12/01 10:14:16;;;;;;;49.40;22.70;;;;;;;;;;103541;1306;22463;-77
2022/12/01 10:16:51;;;;;;;56.50;22.80;;;;;;;;;;103568;1306;22458;-80
2022/12/01 10:19:27;;;;;;;54.30;21.70;;;;;;;;;;103528;1305;23990;-82
2022/12/01 10:21:57;;;;;;;52.40;23.10;;;;;;;;;;103624;1305;23880;-82
2022/12/01 10:24:42;;;;;;;54.50;22.60;;;;;;;;;;103750;1304;25154;-80
2022/12/01 10:27:09;;;;;;;53.00;21.90;;;;;;;;;;103759;1303;24282;-83
2022/12/01 10:29:54;;;;;;;55.10;22.70;;;;;;;;;;103771;1305;24710;-81
2022/12/01 10:32:33;;;;;;;62.80;25.80;;;;;;;;;;103742;1304;24321;-77
2022/12/01 10:35:00;;;;;;;54.50;24.10;;;;;;;;;;103517;1298;22478;-78
2022/12/01 10:37:28;;;;;;;50.00;22.30;;;;;;;;;;103544;1306;25364;-80
2022/12/01 10:39:55;;;;;;;50.10;21.20;;;;;;;;;;103471;1298;23098;-80
2022/12/01 10:42:35;;;;;;;55.30;22.40;;;;;;;;;;103612;1305;24281;-78
2022/12/01 10:45:07;;;;;;;49.40;21.20;;;;;;;;;;103825;1307;24427;-79
2022/12/01 10:47:33;;;;;;;51.20;22.40;;;;;;;;;;103495;1305;25322;-77
2022/12/01 10:50:02;;;;;;;55.20;23.60;;;;;;;;;;103722;1307;22463;-80
2022/12/01 10:52:36;;;;;;;50.90;22.00;;;;;;;;;;103417;1306;24406;-81
2022/12/01 10:55:21;;;;;;;53.30;21.50;;;;;;;;;;103381;1306;22449;-79
2022/12/01 10:57:49;;;;;;;56.50;22.60;;;;;;;;;;103492;1305;22706;-79
2022/12/01 11:00:26;;;;;;;58.90;24.80;;;;;;;;;;103420;1305;24225;-77
2022/12/01 11:02:53;;;;;;;54.70;22.60;;;;;;;;;;103406;1302;25319;-76
2022/12/01 11:05:24;;;;;;;62.70;25.10;;;;;;;;;;103496;1305;25351;-81
2022/12/01 11:07:51;;;;;;;56.60;25.30;;;;;;;;;;103714;1304;22463;-79
2022/12/01 11:10:21;;;;;;;64.30;25.90;;;;;;;;;;103621;1307;25299;-77
2022/12/01 11:12:53;;;;;;;57.00;24.40;;;;;;;;;;103359;1293;22528;-80
2022/12/01 11:15:21;;;;;;;62.10;26.60;;;;;;;;;;103208;1306;22466;-82
2022/12/01 11:17:55;;;;;;;74.80;33.10;;;;;;;;;;103350;1305;23842;-80
2022/12/01 11:20:26;;;;;;;94.30;42.30;;;;;;;;;;103477;1306;25271;-77
2022/12/01 11:23:13;;;;;;;66.20;26.60;;;;;;;;;;103550;1306;24230;-80
2022/12/01 11:25:39;;;;;;;64.10;25.00;;;;;;;;;;103544;1307;22593;-81
2022/12/01 11:28:15;;;;;;;64.00;25.20;;;;;;;;;;103476;1306;22466;-83
2022/12/01 11:30:42;;;;;;;61.90;23.80;;;;;;;;;;103744;1307;25524;-76
2022/12/01 11:33:13;;;;;;;68.50;25.50;;;;;;;;;;103433;1306;22475;-79
2022/12/01 11:35:45;;;;;;;66.50;29.40;;;;;;;;;;103453;1306;26542;-78
2022/12/01 11:38:18;;;;;;;58.30;23.80;;;;;;;;;;103449;1306;24324;-79
2022/12/01 11:40:47;;;;;;;65.60;24.80;;;;;;;;;;103448;1307;22538;-82
2022/12/01 11:43:25;;;;;;;56.40;23.80;;;;;;;;;;103467;1306;25539;-82
2022/12/01 11:45:53;;;;;;;58.10;25.10;;;;;;;;;;103733;1304;24307;-76
2022/12/01 11:48:20;;;;;;;57.30;23.70;;;;;;;;;;103716;1305;22506;-80
2022/12/01 11:51:04;;;;;;;56.40;24.10;;;;;;;;;;103481;1306;25296;-82
2022/12/01 11:53:32;;;;;;;52.90;22.40;;;;;;;;;;103619;1305;23889;-77
2022/12/01 11:56:11;;;;;;;82.50;38.40;;;;;;;;;;103463;1306;22465;-82
2022/12/01 11:58:38;;;;;;;64.70;26.90;;;;;;;;;;103448;1305;24319;-82
2022/12/01 12:01:13;;;;;;;74.80;27.40;;;;;;;;;;103398;1307;22558;-83
2022/12/01 12:03:53;;;;;;;65.80;26.50;;;;;;;;;;103481;1291;22474;-76
2022/12/01 12:06:28;;;;;;;59.90;25.50;;;;;;;;;;103517;1304;22461;-77
2022/12/01 12:08:55;;;;;;;58.70;23.90;;;;;;;;;;103389;1304;22531;-77
2022/12/01 12:11:45;;;;;;;58.00;23.70;;;;;;;;;;103699;1282;24764;-77
2022/12/01 12:14:18;;;;;;;55.20;23.80;;;;;;;;;;103425;1305;24321;-83
2022/12/01 12:17:07;;;;;;;55.50;23.30;;;;;;;;;;103499;1305;23852;-77
2022/12/01 12:19:40;;;;;;;54.70;22.80;;;;;;;;;;103523;1306;22472;-80
2022/12/01 12:22:26;;;;;;;58.10;23.30;;;;;;;;;;103500;1301;25538;-83
2022/12/01 12:25:11;;;;;;;57.20;24.10;;;;;;;;;;103564;1305;25503;-82
2022/12/01 12:27:39;;;;;;;68.00;27.80;;;;;;;;;;103686;1288;24337;-76
2022/12/01 12:30:23;;;;;;;60.20;25.70;;;;;;;;;;103688;1281;22753;-76
2022/12/01 12:33:09;;;;;;;54.80;23.00;;;;;;;;;;103483;1272;22736;-76
2022/12/01 12:35:41;;;;;;;54.70;22.00;;;;;;;;;;103539;1282;25297;-78
2022/12/01 12:38:11;;;;;;;61.20;23.20;;;;;;;;;;103555;1285;25156;-76
2022/12/01 12:40:41;;;;;;;57.10;24.00;;;;;;;;;;103677;1281;24155;-77
2022/12/01 12:43:08;;;;;;;60.90;24.60;;;;;;;;;;103519;1282;25639;-78
2022/12/01 12:45:41;;;;;;;57.10;24.90;;;;;;;;;;103493;1289;22512;-78
2022/12/01 12:48:17;;;;;;;64.90;27.00;;;;;;;;;;103534;1292;24246;-80
2022/12/01 12:50:47;;;;;;;59.70;25.70;;;;;;;;;;103589;1282;25307;-77
2022/12/01 12:53:17;;;;;;;58.60;24.80;;;;;;;;;;103549;1288;25336;-77
2022/12/01 12:55:47;;;;;;;55.80;24.20;;;;;;;;;;106952;1306;22678;-77
2022/12/01 12:58:16;;;;;;;53.90;22.50;;;;;;;;;;106882;1300;21972;-75
2022/12/01 13:00:47;;;;;;;53.20;23.40;;;;;;;;;;106964;1302;22092;-76
2022/12/01 13:03:13;;;;;;;54.30;23.60;;;;;;;;;;106949;1306;22803;-76
2022/12/01 13:05:53;;;;;;;59.70;26.10;;;;;;;;;;106991;1306;22084;-76
2022/12/01 13:08:22;;;;;;;54.40;24.50;;;;;;;;;;106904;1305;22969;-76
2022/12/01 13:10:49;;;;;;;55.90;23.80;;;;;;;;;;107036;1304;22844;-76
2022/12/01 13:13:20;;;;;;;54.40;23.40;;;;;;;;;;107019;1303;22224;-76
2022/12/01 13:15:48;;;;;;;58.10;23.60;;;;;;;;;;106932;1282;22055;-76
2022/12/01 13:18:21;;;;;;;51.40;21.20;;;;;;;;;;106913;1301;21939;-76
2022/12/01 13:20:51;;;;;;;48.50;21.40;;;;;;;;;;106939;1306;22744;-76
2022/12/01 13:23:20;;;;;;;48.10;21.80;;;;;;;;;;106922;1306;21976;-76
2022/12/01 13:25:49;;;;;;;50.30;21.90;;;;;;;;;;106911;1300;22069;-76
2022/12/01 13:28:21;;;;;;;46.50;20.30;;;;;;;;;;106881;1302;21729;-76
2022/12/01 13:31:05;;;;;;;43.90;19.50;;;;;;;;;;106937;1306;22097;-75
2022/12/01 13:33:33;;;;;;;44.00;20.10;;;;;;;;;;106968;1305;22770;-75
2022/12/01 13:36:00;;;;;;;44.60;19.70;;;;;;;;;;106981;1306;22077;-74
2022/12/01 13:38:29;;;;;;;40.60;18.80;;;;;;;;;;107165;1285;22030;-74
2022/12/01 13:41:13;;;;;;;38.40;18.20;;;;;;;;;;106938;1305;22137;-75
2022/12/01 13:43:52;;;;;;;44.60;19.20;;;;;;;;;;106947;1306;22097;-75
2022/12/01 13:46:23;;;;;;;46.60;21.60;;;;;;;;;;107082;1299;22054;-75
2022/12/01 13:48:51;;;;;;;44.00;18.80;;;;;;;;;;106981;1307;22733;-75
2022/12/01 13:51:18;;;;;;;50.90;21.60;;;;;;;;;;106914;1307;22045;-75
2022/12/01 13:54:11;;;;;;;49.50;20.90;;;;;;;;;;107050;1298;22150;-75
2022/12/01 13:56:44;;;;;;;47.70;21.00;;;;;;;;;;106944;1306;22085;-75
2022/12/01 13:59:29;;;;;;;43.50;17.80;;;;;;;;;;106830;1307;22758;-74
2022/12/01 14:02:17;;;;;;;39.10;16.20;;;;;;;;;;106938;1306;22787;-74
2022/12/01 14:04:44;;;;;;;37.00;15.90;;;;;;;;;;106793;1306;22113;-75
2022/12/01 14:07:18;;;;;;;34.00;15.70;;;;;;;;;;106903;1306;22815;-75
2022/12/01 14:09:47;;;;;;;42.00;18.40;;;;;;;;;;107055;1299;21934;-74
2022/12/01 14:12:22;;;;;;;40.50;18.10;;;;;;;;;;106926;1306;22098;-75
2022/12/01 14:14:58;;;;;;;45.50;19.60;;;;;;;;;;106933;1305;22429;-75
2022/12/01 14:17:30;;;;;;;43.40;19.40;;;;;;;;;;106930;1306;22065;-75
2022/12/01 14:20:07;;;;;;;44.10;20.20;;;;;;;;;;106772;1306;21742;-75
2022/12/01 14:22:36;;;;;;;42.00;19.90;;;;;;;;;;106879;1302;22121;-75